createdAt,value
2023-02-11T00:00:41.913Z,72.64
2023-02-11T00:03:08.903Z,72.29
2023-02-11T00:05:35.406Z,72.47
2023-02-11T00:08:01.802Z,72.75
2023-02-11T00:10:28.254Z,72.49
2023-02-11T00:12:54.694Z,72.38
2023-02-11T00:15:21.450Z,72.74
2023-02-11T00:17:47.876Z,72.66
2023-02-11T00:20:14.663Z,72.78
2023-02-11T00:22:41.118Z,72.74
2023-02-11T00:25:07.708Z,72.67
2023-02-11T00:27:34.527Z,72.88
2023-02-11T00:30:02.170Z,72.62
2023-02-11T00:32:30.432Z,72.89
2023-02-11T00:34:56.891Z,72.65
2023-02-11T00:37:23.327Z,72.68
2023-02-11T00:39:50.143Z,72.69
2023-02-11T00:42:16.799Z,72.62
2023-02-11T00:44:44.842Z,72.54
2023-02-11T00:47:11.311Z,72.65
2023-02-11T00:49:40.193Z,72.73
2023-02-11T00:52:06.899Z,72.61
2023-02-11T00:54:34.351Z,72.67
2023-02-11T00:57:00.805Z,72.76
2023-02-11T00:59:27.370Z,72.64
2023-02-11T01:01:53.977Z,72.76
2023-02-11T01:04:20.480Z,72.87
2023-02-11T01:06:47.108Z,72.94
2023-02-11T01:09:13.535Z,72.66
2023-02-11T01:11:40.084Z,72.94
2023-02-11T01:14:06.491Z,72.94
2023-02-11T01:16:32.986Z,72.81
2023-02-11T01:18:59.579Z,72.76
2023-02-11T01:21:26.177Z,72.85
2023-02-11T01:23:52.984Z,73.19
2023-02-11T01:26:19.700Z,72.96
2023-02-11T01:28:46.491Z,72.96
2023-02-11T01:31:13.054Z,73.21
2023-02-11T01:33:40.301Z,72.91
2023-02-11T01:36:08.015Z,73.48
2023-02-11T01:38:34.966Z,73.31
2023-02-11T01:41:05.140Z,73.40
2023-02-11T01:43:41.409Z,73.22
2023-02-11T01:46:31.220Z,73.78
2023-02-11T01:49:06.770Z,73.37
2023-02-11T01:51:40.100Z,73.49
2023-02-11T01:54:27.663Z,73.39
2023-02-11T01:57:15.194Z,73.57
2023-02-11T01:59:57.731Z,73.94
2023-02-11T02:02:30.649Z,73.67
2023-02-11T02:05:14.751Z,73.55
2023-02-11T02:07:58.908Z,73.67
2023-02-11T02:10:28.404Z,73.62
2023-02-11T02:12:55.173Z,73.92
2023-02-11T02:15:38.413Z,73.87
2023-02-11T02:18:13.900Z,73.77
2023-02-11T02:21:11.217Z,74.01
2023-02-11T02:23:54.180Z,73.87
2023-02-11T02:26:37.618Z,74.21
2023-02-11T02:29:31.070Z,74.03
2023-02-11T02:32:31.339Z,74.03
2023-02-11T02:35:06.915Z,73.86
2023-02-11T02:37:54.976Z,73.85
2023-02-11T02:40:28.902Z,73.87
2023-02-11T02:42:56.721Z,73.72
2023-02-11T02:45:23.156Z,73.88
2023-02-11T02:47:49.568Z,73.97
2023-02-11T02:50:20.780Z,74.09
2023-02-11T02:53:04.573Z,74.08
2023-02-11T02:56:00.718Z,74.37
2023-02-11T02:58:30.051Z,74.18
2023-02-11T03:01:34.229Z,74.27
2023-02-11T03:04:25.142Z,74.38
2023-02-11T03:06:57.682Z,74.44
2023-02-11T03:09:34.852Z,74.34
2023-02-11T03:12:03.595Z,74.67
2023-02-11T03:14:32.088Z,74.24
2023-02-11T03:17:01.678Z,74.32
2023-02-11T03:19:37.590Z,74.61
2023-02-11T03:22:08.045Z,74.44
2023-02-11T03:24:38.522Z,74.49
2023-02-11T03:27:20.265Z,74.58
2023-02-11T03:30:01.196Z,74.78
2023-02-11T03:32:36.916Z,74.86
2023-02-11T03:35:14.165Z,74.71
2023-02-11T03:37:49.352Z,74.86
2023-02-11T03:40:21.325Z,74.52
2023-02-11T03:42:54.589Z,74.62
2023-02-11T03:45:23.887Z,74.68
2023-02-11T03:48:29.778Z,74.78
2023-02-11T03:50:59.465Z,74.89
2023-02-11T03:53:25.881Z,74.79
2023-02-11T03:55:54.754Z,75.05
2023-02-11T03:58:21.245Z,75.26
2023-02-11T04:00:48.242Z,75.29
2023-02-11T04:03:14.732Z,75.41
2023-02-11T04:05:41.215Z,75.17
2023-02-11T04:08:07.979Z,75.47
2023-02-11T04:10:34.446Z,75.06
2023-02-11T04:13:01.165Z,75.31
2023-02-11T04:15:27.683Z,75.07
2023-02-11T04:17:54.122Z,75.00
2023-02-11T04:20:20.718Z,75.26
2023-02-11T04:22:47.171Z,75.40
2023-02-11T04:25:13.869Z,75.26
2023-02-11T04:27:40.346Z,75.41
2023-02-11T04:30:07.949Z,75.17
2023-02-11T04:32:34.365Z,75.33
2023-02-11T04:35:00.869Z,75.52
2023-02-11T04:37:27.368Z,75.24
2023-02-11T04:39:53.808Z,75.27
2023-02-11T04:42:20.244Z,75.48
2023-02-11T04:44:46.865Z,75.14
2023-02-11T04:47:15.347Z,75.17
2023-02-11T04:49:42.279Z,75.32
2023-02-11T04:52:09.138Z,75.17
2023-02-11T04:54:35.651Z,75.15
2023-02-11T04:57:02.220Z,75.32
2023-02-11T04:59:29.103Z,75.66
2023-02-11T05:01:55.837Z,75.51
2023-02-11T05:04:22.402Z,75.18
2023-02-11T05:06:48.853Z,75.74
2023-02-11T05:09:15.656Z,75.54
2023-02-11T05:11:42.745Z,75.68
2023-02-11T05:14:09.176Z,75.53
2023-02-11T05:16:35.706Z,75.54
2023-02-11T05:19:02.225Z,75.49
2023-02-11T05:21:28.674Z,75.39
2023-02-11T05:23:55.128Z,75.34
2023-02-11T05:26:21.540Z,75.34
2023-02-11T05:28:48.186Z,75.43
2023-02-11T05:31:15.053Z,75.27
2023-02-11T05:33:41.980Z,75.36
2023-02-11T05:36:11.249Z,75.27
2023-02-11T05:38:38.445Z,75.47
2023-02-11T05:41:06.213Z,75.69
2023-02-11T05:43:32.802Z,75.30
2023-02-11T05:45:59.285Z,75.74
2023-02-11T05:48:25.777Z,75.57
2023-02-11T05:50:52.420Z,75.50
2023-02-11T05:53:18.798Z,75.71
2023-02-11T05:55:46.072Z,75.64
2023-02-11T05:58:12.480Z,75.91
2023-02-11T06:00:39.260Z,75.89
2023-02-11T06:03:05.840Z,75.98
2023-02-11T06:05:33.111Z,75.86
2023-02-11T06:07:59.837Z,76.00
2023-02-11T06:10:26.671Z,76.29
2023-02-11T06:12:53.083Z,76.17
2023-02-11T06:15:19.631Z,76.32
2023-02-11T06:17:46.340Z,76.05
2023-02-11T06:20:12.792Z,76.26
2023-02-11T06:22:39.266Z,76.43
2023-02-11T06:25:06.330Z,76.21
2023-02-11T06:27:32.820Z,76.08
2023-02-11T06:29:59.238Z,76.00
2023-02-11T06:32:45.253Z,76.31
2023-02-11T06:35:13.863Z,76.24
2023-02-11T06:37:41.128Z,76.10
2023-02-11T06:40:08.489Z,76.31
2023-02-11T06:42:36.313Z,76.10
2023-02-11T06:45:05.895Z,76.19
2023-02-11T06:47:32.340Z,76.16
2023-02-11T06:49:58.724Z,76.20
2023-02-11T06:52:25.136Z,76.34
2023-02-11T06:54:51.581Z,76.61
2023-02-11T06:57:18.019Z,76.46
2023-02-11T06:59:44.530Z,76.60
2023-02-11T07:02:11.035Z,76.62
2023-02-11T07:04:37.967Z,76.73
2023-02-11T07:07:04.372Z,76.90
2023-02-11T07:09:30.814Z,76.98
2023-02-11T07:11:57.289Z,77.08
2023-02-11T07:14:23.860Z,77.04
2023-02-11T07:16:50.289Z,77.29
2023-02-11T07:19:17.119Z,76.99
2023-02-11T07:21:43.600Z,76.90
2023-02-11T07:24:11.245Z,77.12
2023-02-11T07:26:38.407Z,76.94
2023-02-11T07:29:05.031Z,76.94
2023-02-11T07:31:31.875Z,76.91
2023-02-11T07:34:00.918Z,76.88
2023-02-11T07:36:28.849Z,77.18
2023-02-11T07:38:55.280Z,77.36
2023-02-11T07:41:23.359Z,77.44
2023-02-11T07:43:50.887Z,77.25
2023-02-11T07:46:25.996Z,77.38
2023-02-11T07:48:53.142Z,77.19
2023-02-11T07:51:29.987Z,77.22
2023-02-11T07:54:02.134Z,77.12
2023-02-11T07:56:29.552Z,77.14
2023-02-11T07:58:59.548Z,77.14
2023-02-11T08:01:28.696Z,77.24
2023-02-11T08:03:56.386Z,77.50
2023-02-11T08:06:24.927Z,77.51
2023-02-11T08:08:51.339Z,77.84
2023-02-11T08:11:26.123Z,77.96
2023-02-11T08:13:53.551Z,77.50
2023-02-11T08:16:26.353Z,77.72
2023-02-11T08:18:55.233Z,78.06
2023-02-11T08:21:21.698Z,77.62
2023-02-11T08:23:49.303Z,78.00
2023-02-11T08:26:21.811Z,78.20
2023-02-11T08:28:50.233Z,78.04
2023-02-11T08:31:19.438Z,78.07
2023-02-11T08:33:46.116Z,78.04
2023-02-11T08:36:18.715Z,78.17
2023-02-11T08:38:45.454Z,78.09
2023-02-11T08:41:14.735Z,77.90
2023-02-11T08:43:44.890Z,78.14
2023-02-11T08:46:15.595Z,77.99
2023-02-11T08:48:42.744Z,78.25
2023-02-11T08:51:11.534Z,78.23
2023-02-11T08:53:37.929Z,78.14
2023-02-11T08:56:04.638Z,78.39
2023-02-11T08:58:31.074Z,78.25
2023-02-11T09:00:57.571Z,78.43
2023-02-11T09:03:23.995Z,78.43
2023-02-11T09:05:53.119Z,78.88
2023-02-11T09:08:21.161Z,78.50
2023-02-11T09:10:48.397Z,78.44
2023-02-11T09:13:16.380Z,78.94
2023-02-11T09:15:46.839Z,79.04
2023-02-11T09:18:13.535Z,79.00
2023-02-11T09:20:40.084Z,79.17
2023-02-11T09:23:06.497Z,79.26
2023-02-11T09:25:32.896Z,79.10
2023-02-11T09:27:59.421Z,79.22
2023-02-11T09:30:25.856Z,79.22
2023-02-11T09:32:52.378Z,79.42
2023-02-11T09:35:18.875Z,79.36
2023-02-11T09:37:45.310Z,79.26
2023-02-11T09:40:13.424Z,79.11
2023-02-11T09:42:48.814Z,79.02
2023-02-11T09:45:27.804Z,79.30
2023-02-11T09:47:57.127Z,79.21
2023-02-11T09:50:32.716Z,79.05
2023-02-11T09:53:04.546Z,79.31
2023-02-11T09:55:37.950Z,79.29
2023-02-11T09:58:11.736Z,79.20
2023-02-11T10:00:46.752Z,79.41
2023-02-11T10:03:46.006Z,79.46
2023-02-11T10:06:32.367Z,79.62
2023-02-11T10:09:24.424Z,79.36
2023-02-11T10:12:09.075Z,79.18
2023-02-11T10:14:46.102Z,79.52
2023-02-11T10:17:44.333Z,79.59
2023-02-11T10:20:19.750Z,79.60
2023-02-11T10:22:54.067Z,79.46
2023-02-11T10:25:25.007Z,79.57
2023-02-11T10:27:54.819Z,79.35
2023-02-11T10:30:25.855Z,79.41
2023-02-11T10:32:59.545Z,79.50
2023-02-11T10:35:27.213Z,79.56
2023-02-11T10:37:55.752Z,79.38
2023-02-11T10:40:25.015Z,79.55
2023-02-11T10:42:55.791Z,79.69
2023-02-11T10:45:30.402Z,79.71
2023-02-11T10:47:57.204Z,79.71
2023-02-11T10:50:30.912Z,79.48
2023-02-11T10:53:15.614Z,79.46
2023-02-11T10:55:53.590Z,79.27
2023-02-11T10:58:28.193Z,79.37
2023-02-11T11:00:59.962Z,79.36
2023-02-11T11:03:32.312Z,79.57
2023-02-11T11:06:01.743Z,79.48
2023-02-11T11:08:44.996Z,79.82
2023-02-11T11:11:20.197Z,79.82
2023-02-11T11:13:52.715Z,79.83
2023-02-11T11:16:28.347Z,79.82
2023-02-11T11:19:06.650Z,80.02
2023-02-11T11:21:41.915Z,79.81
2023-02-11T11:24:18.406Z,79.90
2023-02-11T11:26:48.544Z,79.71
2023-02-11T11:29:19.530Z,79.67
2023-02-11T11:31:49.993Z,79.67
2023-02-11T11:34:38.114Z,79.67
2023-02-11T11:37:13.680Z,79.66
2023-02-11T11:39:40.558Z,79.80
2023-02-11T11:42:25.848Z,79.92
2023-02-11T11:44:58.966Z,79.89
2023-02-11T11:47:31.244Z,79.82
2023-02-11T11:50:34.846Z,79.70
2023-02-11T11:53:11.300Z,79.68
2023-02-11T11:55:48.197Z,79.76
2023-02-11T11:58:21.832Z,79.84
2023-02-11T12:01:25.975Z,80.15
2023-02-11T12:04:20.359Z,80.07
2023-02-11T12:06:56.601Z,79.83
2023-02-11T12:09:37.648Z,79.87
2023-02-11T12:12:19.495Z,79.78
2023-02-11T12:15:16.995Z,79.85
2023-02-11T12:18:00.184Z,79.69
2023-02-11T12:20:38.267Z,79.73
2023-02-11T12:23:46.000Z,80.04
2023-02-11T12:26:24.256Z,79.85
2023-02-11T12:29:12.093Z,79.79
2023-02-11T12:32:09.625Z,80.22
2023-02-11T12:34:47.659Z,79.80
2023-02-11T12:37:37.133Z,79.84
2023-02-11T12:40:25.570Z,80.00
2023-02-11T12:43:17.044Z,79.98
2023-02-11T12:46:21.664Z,80.17
2023-02-11T12:49:16.622Z,80.08
2023-02-11T12:52:04.609Z,79.98
2023-02-11T12:54:43.603Z,80.02
2023-02-11T12:57:23.040Z,79.90
2023-02-11T12:59:58.910Z,79.87
2023-02-11T13:02:28.354Z,79.91
2023-02-11T13:04:59.847Z,79.95
2023-02-11T13:07:33.160Z,80.13
2023-02-11T13:10:20.925Z,80.14
2023-02-11T13:13:08.752Z,79.97
2023-02-11T13:15:35.563Z,80.13
2023-02-11T13:18:24.559Z,79.99
2023-02-11T13:21:03.438Z,79.97
2023-02-11T13:24:00.858Z,80.10
2023-02-11T13:27:13.678Z,80.10
2023-02-11T13:30:11.254Z,79.82
2023-02-11T13:32:56.004Z,79.96
2023-02-11T13:35:36.180Z,80.08
2023-02-11T13:38:05.474Z,80.19
2023-02-11T13:40:37.912Z,80.06
2023-02-11T13:43:08.708Z,80.01
2023-02-11T13:45:42.347Z,80.23
2023-02-11T13:48:21.893Z,80.31
2023-02-11T13:50:57.528Z,80.67
2023-02-11T13:53:24.372Z,80.20
2023-02-11T13:56:04.349Z,80.12
2023-02-11T13:58:36.352Z,80.18
2023-02-11T14:01:02.889Z,80.17
2023-02-11T14:03:51.232Z,80.11
2023-02-11T14:06:39.741Z,80.12
2023-02-11T14:09:09.076Z,80.02
2023-02-11T14:11:41.830Z,79.86
2023-02-11T14:14:08.195Z,80.07
2023-02-11T14:16:38.516Z,80.08
2023-02-11T14:19:06.664Z,79.98
2023-02-11T14:21:37.397Z,80.14
2023-02-11T14:24:06.989Z,80.18
2023-02-11T14:27:21.323Z,80.40
2023-02-11T14:29:59.654Z,80.29
2023-02-11T14:32:53.744Z,80.41
2023-02-11T14:35:35.348Z,80.28
2023-02-11T14:38:21.178Z,80.17
2023-02-11T14:41:07.470Z,80.23
2023-02-11T14:43:46.831Z,80.45
2023-02-11T14:46:17.746Z,80.44
2023-02-11T14:48:48.516Z,80.40
2023-02-11T14:51:31.331Z,80.32
2023-02-11T14:54:03.865Z,80.37
2023-02-11T14:56:31.452Z,80.13
2023-02-11T14:58:58.670Z,80.31
2023-02-11T15:01:29.058Z,80.20
2023-02-11T15:03:56.577Z,80.28
2023-02-11T15:06:39.594Z,80.18
2023-02-11T15:09:14.699Z,80.23
2023-02-11T15:11:44.103Z,80.06
2023-02-11T15:14:18.898Z,80.20
2023-02-11T15:16:47.007Z,80.29
2023-02-11T15:19:23.416Z,79.95
2023-02-11T15:21:50.936Z,80.02
2023-02-11T15:24:27.790Z,79.81
2023-02-11T15:27:18.444Z,79.80
2023-02-11T15:29:49.608Z,79.79
2023-02-11T15:32:23.001Z,79.99
2023-02-11T15:34:51.742Z,80.23
2023-02-11T15:37:24.377Z,80.14
2023-02-11T15:39:52.068Z,80.07
2023-02-11T15:42:40.803Z,80.06
2023-02-11T15:45:13.630Z,80.20
2023-02-11T15:47:46.680Z,80.23
2023-02-11T15:50:31.045Z,80.15
2023-02-11T15:52:59.879Z,80.38
2023-02-11T15:55:28.542Z,80.18
2023-02-11T15:57:58.352Z,80.23
2023-02-11T16:00:33.565Z,80.13
2023-02-11T16:03:00.337Z,80.22
2023-02-11T16:05:37.843Z,80.13
2023-02-11T16:08:25.578Z,80.08
2023-02-11T16:10:58.682Z,80.15
2023-02-11T16:13:28.089Z,80.29
2023-02-11T16:16:02.312Z,80.01
2023-02-11T16:18:38.835Z,80.14
2023-02-11T16:21:15.817Z,80.17
2023-02-11T16:23:43.562Z,80.06
2023-02-11T16:26:20.946Z,79.96
2023-02-11T16:28:51.061Z,79.91
2023-02-11T16:31:18.509Z,80.00
2023-02-11T16:33:45.298Z,79.82
2023-02-11T16:36:13.775Z,79.89
2023-02-11T16:38:40.591Z,79.53
2023-02-11T16:41:07.154Z,79.90
2023-02-11T16:43:33.733Z,79.98
2023-02-11T16:46:00.191Z,79.79
2023-02-11T16:48:26.749Z,79.87
2023-02-11T16:50:53.735Z,79.96
2023-02-11T16:53:24.009Z,80.07
2023-02-11T16:55:51.855Z,79.95
2023-02-11T16:58:19.258Z,79.98
2023-02-11T17:00:47.160Z,80.06
2023-02-11T17:03:22.303Z,80.10
2023-02-11T17:05:55.384Z,80.17
2023-02-11T17:08:23.471Z,80.17
2023-02-11T17:10:50.394Z,79.95
2023-02-11T17:13:17.032Z,80.25
2023-02-11T17:15:43.547Z,80.24
2023-02-11T17:18:14.144Z,80.13
2023-02-11T17:20:41.614Z,80.03
2023-02-11T17:23:08.293Z,79.95
2023-02-11T17:25:37.174Z,80.05
2023-02-11T17:28:08.331Z,79.91
2023-02-11T17:30:35.113Z,79.97
2023-02-11T17:33:01.597Z,80.18
2023-02-11T17:35:28.001Z,80.19
2023-02-11T17:37:54.444Z,80.03
2023-02-11T17:40:21.083Z,80.13
2023-02-11T17:42:47.516Z,80.30
2023-02-11T17:45:14.129Z,80.21
2023-02-11T17:47:40.591Z,80.40
2023-02-11T17:50:08.016Z,80.42
2023-02-11T17:52:34.675Z,80.49
2023-02-11T17:55:01.088Z,80.42
2023-02-11T17:57:27.588Z,80.28
2023-02-11T17:59:54.016Z,80.05
2023-02-11T18:02:20.844Z,80.11
2023-02-11T18:04:47.315Z,80.20
2023-02-11T18:07:13.967Z,79.87
2023-02-11T18:09:41.499Z,80.08
2023-02-11T18:12:08.507Z,79.91
2023-02-11T18:14:35.170Z,79.92
2023-02-11T18:17:01.623Z,79.99
2023-02-11T18:19:30.505Z,79.94
2023-02-11T18:22:00.554Z,79.83
2023-02-11T18:24:27.445Z,79.92
2023-02-11T18:26:53.856Z,80.21
2023-02-11T18:29:20.343Z,80.14
2023-02-11T18:31:46.836Z,80.07
2023-02-11T18:34:14.048Z,80.09
2023-02-11T18:36:40.618Z,80.04
2023-02-11T18:39:07.129Z,79.98
2023-02-11T18:41:33.584Z,80.07
2023-02-11T18:44:04.453Z,80.01
2023-02-11T18:46:31.250Z,80.07
2023-02-11T18:48:57.738Z,79.95
2023-02-11T18:51:24.444Z,79.77
2023-02-11T18:53:51.230Z,79.66
2023-02-11T18:56:21.016Z,79.98
2023-02-11T18:58:51.971Z,80.07
2023-02-11T19:01:22.697Z,79.84
2023-02-11T19:03:49.749Z,80.03
2023-02-11T19:06:19.893Z,79.96
2023-02-11T19:08:47.136Z,79.83
2023-02-11T19:11:16.099Z,79.93
2023-02-11T19:13:42.533Z,80.22
2023-02-11T19:16:11.366Z,79.94
2023-02-11T19:18:38.713Z,79.79
2023-02-11T19:21:10.449Z,79.87
2023-02-11T19:23:37.543Z,79.89
2023-02-11T19:26:04.547Z,79.76
2023-02-11T19:28:35.313Z,79.63
2023-02-11T19:31:08.268Z,79.60
2023-02-11T19:33:34.854Z,79.72
2023-02-11T19:36:06.612Z,79.70
2023-02-11T19:38:33.977Z,79.78
2023-02-11T19:41:00.397Z,79.78
2023-02-11T19:43:26.994Z,80.04
2023-02-11T19:45:57.479Z,79.93
2023-02-11T19:48:25.060Z,79.94
2023-02-11T19:50:51.730Z,79.95
2023-02-11T19:53:18.210Z,79.98
2023-02-11T19:55:44.654Z,80.02
2023-02-11T19:58:11.121Z,80.01
2023-02-11T20:00:37.548Z,80.03
2023-02-11T20:03:03.984Z,80.02
2023-02-11T20:05:31.319Z,79.90
2023-02-11T20:07:57.733Z,79.79
2023-02-11T20:10:25.194Z,79.86
2023-02-11T20:12:51.597Z,79.80
2023-02-11T20:15:18.389Z,79.94
2023-02-11T20:17:44.806Z,79.99
2023-02-11T20:20:12.769Z,79.68
2023-02-11T20:22:39.184Z,79.69
2023-02-11T20:25:06.162Z,79.84
2023-02-11T20:27:33.303Z,79.70
2023-02-11T20:29:59.751Z,79.66
2023-02-11T20:32:27.405Z,79.80
2023-02-11T20:34:53.840Z,79.92
2023-02-11T20:37:20.248Z,79.90
2023-02-11T20:39:46.655Z,79.85
2023-02-11T20:42:14.267Z,79.75
2023-02-11T20:44:40.984Z,79.68
2023-02-11T20:47:07.402Z,79.77
2023-02-11T20:49:33.820Z,79.90
2023-02-11T20:52:00.308Z,79.83
2023-02-11T20:54:26.726Z,79.93
2023-02-11T20:56:53.938Z,79.83
2023-02-11T20:59:21.102Z,79.73
2023-02-11T21:01:53.353Z,79.78
2023-02-11T21:04:22.910Z,79.83
2023-02-11T21:06:52.320Z,79.76
2023-02-11T21:09:21.742Z,79.69
2023-02-11T21:11:51.443Z,79.68
2023-02-11T21:14:19.004Z,79.65
2023-02-11T21:16:46.379Z,79.71
2023-02-11T21:19:12.951Z,79.58
2023-02-11T21:21:40.528Z,79.62
2023-02-11T21:24:07.891Z,79.46
2023-02-11T21:26:35.499Z,79.60
2023-02-11T21:29:07.341Z,79.48
2023-02-11T21:31:35.320Z,79.37
2023-02-11T21:34:01.891Z,79.43
2023-02-11T21:36:29.528Z,79.59
2023-02-11T21:38:55.988Z,79.46
2023-02-11T21:41:22.645Z,79.58
2023-02-11T21:43:50.207Z,79.63
2023-02-11T21:46:17.911Z,79.46
2023-02-11T21:48:44.558Z,79.46
2023-02-11T21:51:16.666Z,79.10
2023-02-11T21:53:43.457Z,79.46
2023-02-11T21:56:16.258Z,79.40
2023-02-11T21:58:44.073Z,79.44
2023-02-11T22:01:13.314Z,79.44
2023-02-11T22:03:40.295Z,79.44
2023-02-11T22:06:09.269Z,79.58
2023-02-11T22:08:36.016Z,79.39
2023-02-11T22:11:04.560Z,79.36
2023-02-11T22:13:31.161Z,79.51
2023-02-11T22:15:59.562Z,79.48
2023-02-11T22:18:26.400Z,79.33
2023-02-11T22:21:04.669Z,79.34
2023-02-11T22:23:31.652Z,79.40
2023-02-11T22:25:58.565Z,79.33
2023-02-11T22:28:26.109Z,79.48
2023-02-11T22:30:54.628Z,79.40
2023-02-11T22:33:22.029Z,79.11
2023-02-11T22:35:48.489Z,79.43
2023-02-11T22:38:14.929Z,79.41
2023-02-11T22:40:43.090Z,79.36
2023-02-11T22:43:10.463Z,79.44
2023-02-11T22:45:36.922Z,79.44
2023-02-11T22:48:03.565Z,79.49
2023-02-11T22:50:30.317Z,79.51
2023-02-11T22:52:56.700Z,79.40
2023-02-11T22:55:23.103Z,79.45
2023-02-11T22:57:49.542Z,79.55
2023-02-11T23:00:17.146Z,79.63
2023-02-11T23:02:43.672Z,79.44
2023-02-11T23:05:10.165Z,79.68
2023-02-11T23:07:36.612Z,79.57
2023-02-11T23:10:03.657Z,79.64
2023-02-11T23:12:30.336Z,79.56
2023-02-11T23:14:56.762Z,79.51
2023-02-11T23:17:24.512Z,79.55
2023-02-11T23:19:51.097Z,79.56
2023-02-11T23:22:17.659Z,79.51
2023-02-11T23:24:44.240Z,79.44
2023-02-11T23:27:10.637Z,79.57
2023-02-11T23:29:37.059Z,79.23
2023-02-11T23:32:03.604Z,79.49
2023-02-11T23:34:30.018Z,79.49
2023-02-11T23:36:59.158Z,79.59
2023-02-11T23:39:25.732Z,79.64
2023-02-11T23:41:58.843Z,79.55
2023-02-11T23:44:26.704Z,79.60
2023-02-11T23:46:53.217Z,79.64
2023-02-11T23:49:20.009Z,79.54
2023-02-11T23:51:46.487Z,79.55
2023-02-11T23:54:14.832Z,79.61
2023-02-11T23:56:42.532Z,79.52
2023-02-11T23:59:09.350Z,79.48
